Time;durP1;ratioP1;P1;durP2;ratioP2;P2;SDS_P1;SDS_P2;PMS_P1;PMS_P2;Temp;Humidity;BMP_temperature;BMP_pressure;BME280_temperature;BME280_humidity;BME280_pressure;Samples;Min_cycle;Max_cycle;Signal;HPM_P1;HPM_P2
2022/10/04 00:00:26;;;;;;;8.25;1.75;;;;;;;16.43;100.00;94883.19;6162236;23;20004;-88
2022/10/04 00:02:55;;;;;;;7.13;2.85;;;;;;;16.33;100.00;94884.16;6162758;23;20001;-88
2022/10/04 00:05:23;;;;;;;13.27;3.75;;;;;;;16.27;100.00;94881.88;6162528;23;20020;-88
2022/10/04 00:07:54;;;;;;;10.30;2.90;;;;;;;16.24;100.00;94878.75;6162252;23;20000;-88
2022/10/04 00:10:23;;;;;;;9.85;3.38;;;;;;;15.91;100.00;94885.88;6168621;23;20011;-89
2022/10/04 00:12:58;;;;;;;9.82;3.05;;;;;;;16.04;100.00;94887.78;6217177;23;20001;-89
2022/10/04 00:15:34;;;;;;;10.05;2.80;;;;;;;15.90;100.00;94886.97;6216710;23;20005;-89
2022/10/04 00:18:00;;;;;;;6.38;2.22;;;;;;;16.02;100.00;94882.00;6192043;23;20032;-88
2022/10/04 00:20:52;;;;;;;10.00;2.03;;;;;;;16.17;100.00;94888.91;6216804;23;20000;-89
2022/10/04 00:23:23;;;;;;;9.90;2.05;;;;;;;16.29;100.00;94882.38;6217025;23;20000;-89
2022/10/04 00:26:21;;;;;;;8.23;1.80;;;;;;;16.29;100.00;94888.47;6218294;23;20023;-88
2022/10/04 00:28:48;;;;;;;7.88;2.13;;;;;;;16.09;100.00;94889.56;6139228;23;20016;-88
2022/10/04 00:31:23;;;;;;;6.47;2.22;;;;;;;15.97;100.00;94887.38;6217513;23;19996;-89
2022/10/04 00:34:07;;;;;;;7.28;1.90;;;;;;;15.94;100.00;94896.66;6218449;23;20394;-88
2022/10/04 00:36:49;;;;;;;7.03;2.25;;;;;;;16.07;100.00;94892.50;6218398;23;20001;-89
2022/10/04 00:39:25;;;;;;;8.13;2.30;;;;;;;15.89;100.00;94886.16;6192234;23;20080;-89
2022/10/04 00:42:25;;;;;;;7.85;2.10;;;;;;;16.27;100.00;94879.22;6191899;23;20051;-89
2022/10/04 00:44:58;;;;;;;6.55;2.00;;;;;;;16.03;100.00;94885.44;6188752;23;20001;-89
2022/10/04 00:47:52;;;;;;;6.17;1.80;;;;;;;16.04;100.00;94892.28;6191450;23;20001;-89
2022/10/04 00:50:21;;;;;;;4.15;1.65;;;;;;;15.90;100.00;94892.25;6216755;23;20032;-88
2022/10/04 00:52:52;;;;;;;13.20;1.83;;;;;;;15.95;100.00;94892.16;6216687;23;19996;-88
2022/10/04 00:55:51;;;;;;;4.70;1.77;;;;;;;16.44;100.00;94884.75;6216834;23;20012;-88
2022/10/04 00:58:52;;;;;;;7.10;1.65;;;;;;;16.45;100.00;94888.97;6152341;23;20003;-88
2022/10/04 01:01:22;;;;;;;3.10;1.25;;;;;;;16.54;100.00;94883.78;6198287;23;20325;-88
2022/10/04 01:03:48;;;;;;;4.13;1.55;;;;;;;16.63;100.00;94883.88;6216631;23;20023;-88
2022/10/04 01:06:14;;;;;;;2.92;1.10;;;;;;;16.60;100.00;94885.28;6216619;23;19997;-88
2022/10/04 01:08:45;;;;;;;5.15;1.20;;;;;;;16.54;100.00;94878.50;6216813;23;20095;-89
2022/10/04 01:11:34;;;;;;;5.07;1.30;;;;;;;16.36;100.00;94875.63;6217002;23;20007;-89
2022/10/04 01:14:19;;;;;;;3.38;1.25;;;;;;;16.44;100.00;94873.41;6216953;23;20000;-88
2022/10/04 01:16:45;;;;;;;4.65;1.27;;;;;;;16.05;100.00;94875.34;6191816;23;20054;-88
2022/10/04 01:19:30;;;;;;;1.58;0.95;;;;;;;16.16;100.00;94868.81;6191864;23;20402;-89
2022/10/04 01:22:04;;;;;;;4.68;1.10;;;;;;;16.36;100.00;94872.97;6217174;23;20000;-88
2022/10/04 01:24:34;;;;;;;5.30;1.40;;;;;;;16.49;100.00;94863.50;6217663;23;19999;-89
2022/10/04 01:27:00;;;;;;;3.63;1.15;;;;;;;16.28;100.00;94865.72;6190335;23;20083;-88
2022/10/04 01:29:38;;;;;;;10.50;1.52;;;;;;;16.08;100.00;94869.50;6191397;23;20005;-88
2022/10/04 01:32:04;;;;;;;6.78;1.30;;;;;;;15.61;100.00;94869.41;6216468;23;20390;-88
2022/10/04 01:34:29;;;;;;;3.38;1.15;;;;;;;15.79;100.00;94863.31;6191125;23;20058;-89
2022/10/04 01:36:58;;;;;;;1.58;1.00;;;;;;;15.94;100.00;94864.97;6191571;23;20426;-89
2022/10/04 01:39:24;;;;;;;4.13;1.23;;;;;;;16.01;100.00;94861.16;6216177;23;20006;-88
2022/10/04 01:42:08;;;;;;;3.63;1.00;;;;;;;16.05;100.00;94868.22;6216333;23;20004;-88
2022/10/04 01:44:36;;;;;;;;;;;;;;;16.09;100.00;94871.06;6216456;23;20004;-88
2022/10/04 01:47:07;;;;;;;4.43;1.30;;;;;;;15.93;100.00;94858.09;6217373;23;20360;-88
2022/10/04 01:49:33;;;;;;;3.10;1.30;;;;;;;16.00;100.00;94854.28;6216162;23;20321;-87
2022/10/04 01:52:17;;;;;;;4.47;1.10;;;;;;;15.79;100.00;94854.59;6216270;23;20004;-89
2022/10/04 01:54:47;;;;;;;6.43;1.10;;;;;;;15.80;100.00;94862.22;6191784;23;20012;-89
2022/10/04 01:57:17;;;;;;;9.30;1.77;;;;;;;15.69;100.00;94856.31;6191011;23;20004;-88
2022/10/04 01:59:50;;;;;;;5.57;1.20;;;;;;;15.82;100.00;94857.44;6191260;23;20427;-88
2022/10/04 02:02:20;;;;;;;;;;;;;;;16.05;100.00;94848.91;6216659;23;20054;-88
2022/10/04 02:04:51;;;;;;;4.68;1.35;;;;;;;15.93;100.00;94852.81;6216248;23;19950;-89
2022/10/04 02:07:17;;;;;;;5.13;1.45;;;;;;;15.87;100.00;94856.56;6216122;23;20310;-88
2022/10/04 02:09:45;;;;;;;3.50;1.10;;;;;;;15.92;100.00;94856.53;6216211;23;20075;-88
2022/10/04 02:12:16;;;;;;;2.03;0.80;;;;;;;16.01;100.00;94855.88;6216258;23;20004;-88
2022/10/04 02:14:54;;;;;;;2.35;0.82;;;;;;;16.13;100.00;94863.31;6216252;23;20402;-88
2022/10/04 02:17:29;;;;;;;2.15;1.02;;;;;;;16.27;100.00;94858.09;6191949;23;20066;-87
2022/10/04 02:19:56;;;;;;;5.30;0.90;;;;;;;16.14;100.00;94851.69;6215791;23;20287;-88
2022/10/04 02:22:22;;;;;;;1.42;0.85;;;;;;;16.19;100.00;94859.53;6191201;23;20000;-88
2022/10/04 02:24:48;;;;;;;4.60;1.10;;;;;;;15.65;100.00;94855.34;6216019;23;20350;-88
2022/10/04 02:27:14;;;;;;;2.47;1.00;;;;;;;15.28;100.00;94856.91;6215997;23;20318;-89
2022/10/04 02:29:40;;;;;;;8.60;1.27;;;;;;;15.41;100.00;94860.66;6215834;23;19993;-88
2022/10/04 02:34:52;;;;;;;3.42;0.95;;;;;;;15.50;100.00;94858.19;6215692;23;20066;-88
2022/10/04 02:37:21;;;;;;;3.20;0.80;;;;;;;15.30;100.00;94853.97;6215967;23;20007;-88
2022/10/04 02:40:14;;;;;;;5.20;1.05;;;;;;;15.18;100.00;94863.09;6215600;23;19999;-88
2022/10/04 02:42:54;;;;;;;4.10;1.00;;;;;;;15.36;100.00;94858.13;6212781;23;20059;-88
2022/10/04 02:45:41;;;;;;;6.05;1.30;;;;;;;15.41;100.00;94858.84;6215839;23;20080;-88
2022/10/04 02:48:26;;;;;;;4.72;1.27;;;;;;;15.44;100.00;94856.69;6215753;23;20040;-88
2022/10/04 02:50:57;;;;;;;2.38;1.10;;;;;;;15.45;100.00;94855.63;6191346;23;20000;-88
2022/10/04 02:53:56;;;;;;;5.18;1.20;;;;;;;15.44;100.00;94852.19;6167651;23;20008;-88
2022/10/04 02:56:23;;;;;;;4.18;1.60;;;;;;;15.49;100.00;94856.59;6233805;23;20015;-88
2022/10/04 02:58:51;;;;;;;4.05;1.38;;;;;;;15.11;100.00;94849.47;6216003;23;20051;-88
2022/10/04 03:01:25;;;;;;;3.20;1.30;;;;;;;14.98;100.00;94848.31;6215804;23;20318;-89
2022/10/04 03:03:51;;;;;;;2.95;1.20;;;;;;;15.25;100.00;94852.97;6190921;23;20425;-88
2022/10/04 03:06:19;;;;;;;5.38;1.45;;;;;;;15.20;100.00;94844.31;6215814;23;19997;-88
2022/10/04 03:08:54;;;;;;;3.33;1.40;;;;;;;15.23;100.00;94844.53;6190870;23;20362;-88
2022/10/04 03:11:21;;;;;;;4.03;1.25;;;;;;;15.32;100.00;94846.56;6215561;23;20318;-89
2022/10/04 03:13:52;;;;;;;5.55;1.55;;;;;;;15.21;100.00;94848.56;6215787;23;19996;-89
2022/10/04 03:16:18;;;;;;;3.78;0.90;;;;;;;15.32;100.00;94851.84;6215669;23;20032;-88
2022/10/04 03:18:45;;;;;;;4.55;1.33;;;;;;;15.26;100.00;94853.75;6215549;23;20076;-89
2022/10/04 03:21:13;;;;;;;6.28;1.02;;;;;;;15.07;100.00;94851.09;6216113;23;20007;-89
2022/10/04 03:23:39;;;;;;;3.67;1.13;;;;;;;14.89;100.00;94848.16;6215745;23;20314;-89
2022/10/04 03:26:20;;;;;;;6.28;1.13;;;;;;;15.18;100.00;94849.09;6190611;23;19997;-89
2022/10/04 03:28:46;;;;;;;4.22;1.20;;;;;;;15.13;100.00;94849.94;6215265;23;20004;-89
2022/10/04 03:31:12;;;;;;;6.32;1.27;;;;;;;15.28;100.00;94848.97;6215878;23;19996;-89
2022/10/04 03:33:42;;;;;;;5.03;1.27;;;;;;;15.19;100.00;94848.84;6190771;23;19997;-89
2022/10/04 03:36:12;;;;;;;3.13;1.10;;;;;;;15.19;100.00;94853.31;6190436;23;20013;-89
2022/10/04 03:38:39;;;;;;;6.45;1.20;;;;;;;14.83;100.00;94850.06;6216015;23;20001;-88
2022/10/04 03:41:05;;;;;;;5.15;1.30;;;;;;;14.53;100.00;94851.16;6215939;23;20012;-89
2022/10/04 03:43:33;;;;;;;4.05;1.17;;;;;;;15.08;100.00;94847.38;6215741;23;20103;-88
2022/10/04 03:46:04;;;;;;;2.38;1.00;;;;;;;15.27;100.00;94844.78;6190649;23;20000;-89
2022/10/04 03:48:33;;;;;;;3.28;1.20;;;;;;;15.27;100.00;94853.47;6214961;23;20007;-89
2022/10/04 03:50:59;;;;;;;4.22;1.35;;;;;;;15.18;100.00;94857.81;6190610;23;20008;-89
2022/10/04 03:53:30;;;;;;;3.80;1.08;;;;;;;15.25;100.00;94860.13;6192898;23;20000;-89
2022/10/04 03:55:55;;;;;;;5.43;1.50;;;;;;;15.32;100.00;94852.59;6216998;23;20414;-90
2022/10/04 03:58:22;;;;;;;5.80;1.50;;;;;;;15.31;100.00;94858.97;6192012;23;20000;-89
2022/10/04 04:00:57;;;;;;;5.30;1.35;;;;;;;15.27;100.00;94855.34;6192302;23;20299;-89
2022/10/04 04:03:25;;;;;;;5.22;1.30;;;;;;;15.09;100.00;94865.59;6218723;23;20470;-88
2022/10/04 04:05:53;;;;;;;8.73;1.38;;;;;;;14.82;100.00;94861.69;6217352;23;20079;-88
2022/10/04 04:08:41;;;;;;;9.07;1.52;;;;;;;15.00;100.00;94856.72;6192418;23;20016;-88
2022/10/04 04:11:17;;;;;;;6.38;1.10;;;;;;;15.19;100.00;94861.22;6192380;23;20143;-88
2022/10/04 04:14:13;;;;;;;5.15;1.33;;;;;;;15.18;100.00;94860.47;6217247;23;20019;-89
2022/10/04 04:16:38;;;;;;;1.42;0.88;;;;;;;15.10;100.00;94858.44;6192461;23;20161;-89
2022/10/04 04:19:10;;;;;;;5.65;1.77;;;;;;;15.31;100.00;94863.47;6216986;23;20020;-89
2022/10/04 04:21:36;;;;;;;3.55;1.50;;;;;;;15.15;100.00;94858.41;6217375;23;20000;-88
2022/10/04 04:24:04;;;;;;;4.85;1.20;;;;;;;15.06;100.00;94860.88;6217354;23;20000;-88
2022/10/04 04:26:40;;;;;;;3.40;1.45;;;;;;;15.42;100.00;94856.97;6217363;23;20070;-88
2022/10/04 04:29:15;;;;;;;4.13;1.10;;;;;;;15.49;100.00;94865.31;6216887;23;20390;-88
2022/10/04 04:31:44;;;;;;;4.13;1.10;;;;;;;15.51;100.00;94868.47;6216987;23;20001;-89
2022/10/04 04:34:26;;;;;;;5.57;1.75;;;;;;;15.66;100.00;94867.47;6218007;23;20005;-90
2022/10/04 04:36:57;;;;;;;2.58;1.13;;;;;;;15.36;100.00;94864.19;6192068;23;20008;-90
2022/10/04 04:39:40;;;;;;;4.00;1.48;;;;;;;15.48;100.00;94876.97;6191722;23;20001;-90
2022/10/04 04:42:20;;;;;;;5.93;1.35;;;;;;;15.63;100.00;94872.53;6216849;23;20415;-90
2022/10/04 04:44:59;;;;;;;4.60;0.90;;;;;;;15.68;100.00;94873.25;6218103;23;20004;-91
2022/10/04 04:47:34;;;;;;;7.15;1.38;;;;;;;15.59;100.00;94879.47;6216480;23;20020;-89
2022/10/04 04:50:11;;;;;;;6.18;1.20;;;;;;;15.46;100.00;94880.94;6192452;23;20036;-89
2022/10/04 04:52:37;;;;;;;5.25;1.40;;;;;;;15.50;100.00;94884.59;6192116;23;20362;-89
2022/10/04 04:55:03;;;;;;;5.15;1.35;;;;;;;15.35;100.00;94886.38;6216722;23;20011;-89
2022/10/04 04:57:29;;;;;;;5.40;1.08;;;;;;;15.10;100.00;94887.47;6216888;23;20087;-89
2022/10/04 04:59:57;;;;;;;3.58;1.30;;;;;;;15.04;100.00;94889.38;6216442;23;20004;-89
2022/10/04 05:02:27;;;;;;;3.25;1.10;;;;;;;14.69;100.00;94891.34;6217780;23;20410;-88
2022/10/04 05:05:15;;;;;;;3.13;1.55;;;;;;;14.76;100.00;94891.03;6217911;23;19996;-88
2022/10/04 05:07:42;;;;;;;5.50;1.25;;;;;;;14.35;100.00;94895.63;6217633;23;19996;-88
2022/10/04 05:10:29;;;;;;;1.92;1.10;;;;;;;14.55;100.00;94892.00;6213158;23;20054;-88
2022/10/04 05:12:54;;;;;;;4.45;1.45;;;;;;;14.27;100.00;94899.63;6162231;23;20406;-88
2022/10/04 05:15:21;;;;;;;3.92;1.35;;;;;;;14.30;100.00;94903.59;6137542;23;20037;-88
2022/10/04 05:17:47;;;;;;;4.03;1.65;;;;;;;14.13;100.00;94899.50;6162018;23;20004;-88
2022/10/04 05:20:14;;;;;;;3.08;1.60;;;;;;;14.30;100.00;94897.50;6187767;23;20001;-88
2022/10/04 05:22:42;;;;;;;5.72;1.70;;;;;;;14.41;100.00;94901.63;6161434;23;19997;-88
2022/10/04 05:25:14;;;;;;;5.75;1.98;;;;;;;14.34;100.00;94903.78;6161032;23;20279;-88
2022/10/04 05:27:43;;;;;;;4.65;1.35;;;;;;;14.71;100.00;94910.31;6137210;23;20008;-88
2022/10/04 05:30:25;;;;;;;4.40;1.20;;;;;;;14.74;100.00;94912.41;6187928;23;20012;-88
2022/10/04 05:32:59;;;;;;;4.63;1.50;;;;;;;14.76;100.00;94915.53;6161707;23;20314;-88
2022/10/04 05:35:26;;;;;;;6.45;1.75;;;;;;;14.76;100.00;94926.09;6137130;23;20402;-89
2022/10/04 05:38:25;;;;;;;9.60;1.75;;;;;;;14.84;100.00;94928.13;6161591;23;20001;-88
2022/10/04 05:40:51;;;;;;;5.47;1.60;;;;;;;15.00;100.00;94933.25;6187306;23;19997;-90
2022/10/04 05:43:21;;;;;;;5.18;1.52;;;;;;;14.99;100.00;94931.66;6161724;23;20024;-86
2022/10/04 05:46:03;;;;;;;6.80;1.30;;;;;;;14.66;100.00;94932.22;6161125;23;20020;-87
2022/10/04 05:48:29;;;;;;;11.80;1.60;;;;;;;14.29;100.00;94933.63;6161357;23;20005;-87
2022/10/04 05:50:54;;;;;;;2.60;1.20;;;;;;;14.52;100.00;94933.94;6161327;23;19997;-86
2022/10/04 05:53:34;;;;;;;6.82;1.60;;;;;;;14.86;100.00;94930.50;6160960;23;20331;-86
2022/10/04 05:56:24;;;;;;;2.67;1.25;;;;;;;15.45;100.00;94935.63;6161684;23;20001;-86
2022/10/04 05:59:11;;;;;;;2.20;1.23;;;;;;;15.50;100.00;94938.19;6161179;23;20012;-87
2022/10/04 06:01:55;;;;;;;2.85;1.33;;;;;;;15.37;100.00;94934.41;6187249;23;19999;-86
2022/10/04 06:04:45;;;;;;;7.47;1.33;;;;;;;15.09;100.00;94939.47;6187294;23;20001;-87
2022/10/04 06:07:24;;;;;;;4.35;1.23;;;;;;;15.51;100.00;94939.00;6161263;23;20403;-87
2022/10/04 06:10:06;;;;;;;6.55;1.58;;;;;;;15.23;100.00;94938.81;6160762;23;19996;-87
2022/10/04 06:12:44;;;;;;;9.57;1.52;;;;;;;15.36;100.00;94942.59;6187540;23;20005;-87
2022/10/04 06:15:47;;;;;;;6.43;1.80;;;;;;;15.70;100.00;94946.91;6160678;23;20001;-87
2022/10/04 06:18:24;;;;;;;4.95;1.10;;;;;;;15.76;100.00;94943.13;6160965;23;20005;-87
2022/10/04 06:21:21;;;;;;;9.02;1.85;;;;;;;15.99;100.00;94947.88;6187004;23;20024;-87
2022/10/04 06:24:24;;;;;;;3.53;1.05;;;;;;;16.28;100.00;94947.66;6161206;23;20336;-87
2022/10/04 06:27:25;;;;;;;5.65;1.38;;;;;;;16.31;100.00;94947.13;6122482;23;20422;-87
2022/10/04 06:29:56;;;;;;;3.88;0.90;;;;;;;16.44;100.00;94950.09;6186895;23;20079;-87
2022/10/04 06:32:50;;;;;;;2.95;1.15;;;;;;;16.80;100.00;94952.09;6161181;23;20028;-87
2022/10/04 06:35:30;;;;;;;7.50;1.15;;;;;;;16.88;100.00;94961.22;6186944;23;20013;-87
2022/10/04 06:37:58;;;;;;;5.18;1.55;;;;;;;16.82;100.00;94963.97;6186882;23;20004;-87
2022/10/04 06:40:45;;;;;;;3.40;1.13;;;;;;;16.89;100.00;94965.44;6186820;23;20080;-87
2022/10/04 06:43:23;;;;;;;3.60;1.20;;;;;;;17.14;100.00;94964.22;6161127;23;20004;-87
2022/10/04 06:46:11;;;;;;;2.30;0.95;;;;;;;17.24;100.00;94958.72;6186916;23;20434;-87
2022/10/04 06:48:50;;;;;;;3.55;1.40;;;;;;;17.28;100.00;94968.72;6186973;23;20001;-87
2022/10/04 06:51:39;;;;;;;7.07;1.73;;;;;;;17.28;100.00;94966.88;6160796;23;20001;-87
2022/10/04 06:54:13;;;;;;;7.88;1.50;;;;;;;17.30;100.00;94964.72;6186893;23;19996;-87
2022/10/04 06:56:54;;;;;;;4.35;1.30;;;;;;;17.34;100.00;94970.22;6187190;23;20011;-87
2022/10/04 06:59:38;;;;;;;5.38;1.27;;;;;;;17.49;100.00;94979.69;6160696;23;20005;-87
2022/10/04 07:02:26;;;;;;;2.75;1.33;;;;;;;17.59;100.00;94976.09;6187168;23;20000;-87
2022/10/04 07:05:12;;;;;;;4.82;0.90;;;;;;;17.77;100.00;94980.44;6136550;23;19997;-87
2022/10/04 07:07:43;;;;;;;3.75;1.13;;;;;;;17.82;100.00;94987.53;6160966;23;20047;-87
2022/10/04 07:10:29;;;;;;;1.85;0.90;;;;;;;17.86;100.00;94980.53;6160785;23;20151;-87
2022/10/04 07:13:12;;;;;;;6.20;1.30;;;;;;;17.95;100.00;94985.91;6186666;23;20001;-87
2022/10/04 07:15:56;;;;;;;5.72;1.25;;;;;;;18.11;100.00;94991.69;6160542;23;20001;-87
2022/10/04 07:18:35;;;;;;;4.43;1.05;;;;;;;18.11;100.00;94986.38;6161039;23;20095;-87
2022/10/04 07:21:11;;;;;;;2.85;0.90;;;;;;;18.25;100.00;95001.47;6161068;23;19997;-87
2022/10/04 07:24:00;;;;;;;4.38;1.20;;;;;;;18.16;100.00;95002.16;6160942;23;20311;-87
2022/10/04 07:26:45;;;;;;;4.40;1.25;;;;;;;18.29;100.00;94999.78;6162748;23;20000;-87
2022/10/04 07:29:34;;;;;;;2.35;0.93;;;;;;;18.12;100.00;95003.06;6162286;23;20124;-87
2022/10/04 07:32:03;;;;;;;4.55;1.20;;;;;;;18.49;100.00;95004.59;6163032;23;20031;-87
2022/10/04 07:34:38;;;;;;;4.90;0.85;;;;;;;18.57;100.00;94999.66;6188891;23;20005;-87
2022/10/04 07:37:11;;;;;;;5.20;0.93;;;;;;;18.73;100.00;95002.72;6162574;23;20004;-87
2022/10/04 07:39:43;;;;;;;5.17;1.10;;;;;;;18.70;100.00;95006.78;6138302;23;20063;-87
2022/10/04 07:42:22;;;;;;;3.22;1.00;;;;;;;18.89;100.00;95003.13;6188451;23;20161;-87
2022/10/04 07:45:02;;;;;;;4.85;1.23;;;;;;;19.05;100.00;95006.97;6162735;23;20406;-87
2022/10/04 07:47:34;;;;;;;3.60;1.00;;;;;;;18.50;100.00;95003.50;6162828;23;20001;-87
2022/10/04 07:50:23;;;;;;;4.35;1.10;;;;;;;18.87;100.00;95000.00;6137911;23;19997;-87
2022/10/04 07:52:52;;;;;;;1.17;0.70;;;;;;;18.65;100.00;95010.31;6162420;23;20001;-87
2022/10/04 07:55:31;;;;;;;1.80;1.00;;;;;;;18.96;100.00;95016.75;6162718;23;20001;-87
2022/10/04 07:58:08;;;;;;;2.83;1.08;;;;;;;18.69;100.00;95017.69;6162417;23;20099;-87
2022/10/04 08:00:51;;;;;;;1.83;1.20;;;;;;;19.06;100.00;95019.16;6162570;23;20292;-87
2022/10/04 08:03:44;;;;;;;4.03;0.93;;;;;;;18.87;100.00;95018.56;6162442;23;20008;-87
2022/10/04 08:06:25;;;;;;;2.75;0.90;;;;;;;19.24;100.00;95019.25;6188329;23;20012;-87
2022/10/04 08:09:04;;;;;;;2.35;1.40;;;;;;;18.88;100.00;95022.78;6188221;23;20001;-87
2022/10/04 08:11:51;;;;;;;3.80;1.25;;;;;;;18.81;100.00;95023.22;6197126;23;20004;-87
2022/10/04 08:14:27;;;;;;;5.63;1.10;;;;;;;19.04;100.00;95026.66;6217004;23;20001;-87
2022/10/04 08:17:17;;;;;;;6.55;1.27;;;;;;;19.20;100.00;95019.09;6217239;23;20072;-87
2022/10/04 08:19:53;;;;;;;2.60;1.27;;;;;;;19.47;100.00;95019.97;6216986;23;20024;-87
2022/10/04 08:22:42;;;;;;;2.70;1.23;;;;;;;19.58;100.00;95020.47;6218321;23;20007;-87
2022/10/04 08:25:17;;;;;;;4.13;1.05;;;;;;;19.76;100.00;95020.50;6216875;23;19996;-87
2022/10/04 08:31:14;;;;;;;3.13;0.95;;;;;;;19.61;100.00;95019.84;6218066;23;20015;-87
2022/10/04 08:33:45;;;;;;;2.10;1.02;;;;;;;19.75;100.00;95018.94;6205867;23;20008;-87
2022/10/04 08:36:48;;;;;;;6.18;1.40;;;;;;;20.10;100.00;95021.69;6216848;23;20008;-87
2022/10/04 08:39:21;;;;;;;3.55;1.00;;;;;;;20.27;100.00;95028.88;6217945;23;19996;-87
2022/10/04 08:42:00;;;;;;;;;;;;;;;19.91;100.00;95025.38;6217336;23;20031;-87
2022/10/04 08:44:32;;;;;;;5.15;1.40;;;;;;;20.36;100.00;95025.44;6217026;23;19904;-87
2022/10/04 08:46:58;;;;;;;4.15;1.70;;;;;;;20.44;100.00;95030.75;6218039;23;20420;-87
2022/10/04 08:49:57;;;;;;;8.05;1.42;;;;;;;21.02;100.00;95030.53;6217879;23;20001;-88
2022/10/04 08:52:41;;;;;;;5.28;1.98;;;;;;;21.01;100.00;95026.31;6216684;23;20142;-87
2022/10/04 08:55:33;;;;;;;7.28;1.70;;;;;;;21.17;100.00;95036.44;6217913;23;20086;-87
2022/10/04 08:58:17;;;;;;;5.25;2.15;;;;;;;21.27;100.00;95036.09;6216668;23;20004;-87
2022/10/04 09:00:57;;;;;;;13.77;1.95;;;;;;;21.35;100.00;95031.84;6216876;23;20007;-87
2022/10/04 09:03:46;;;;;;;3.60;1.92;;;;;;;21.34;100.00;95038.28;6216701;23;20014;-87
2022/10/04 09:06:14;;;;;;;6.45;2.33;;;;;;;21.57;100.00;95035.34;6217818;23;19993;-87
2022/10/04 09:09:02;;;;;;;3.92;1.90;;;;;;;21.69;100.00;95040.03;6216618;23;20393;-87
2022/10/04 09:11:39;;;;;;;6.28;1.90;;;;;;;21.41;100.00;95037.78;6198274;23;20001;-87
2022/10/04 09:14:13;;;;;;;8.32;2.55;;;;;;;21.85;100.00;95030.38;6161549;23;20004;-88
2022/10/04 09:16:45;;;;;;;5.15;2.05;;;;;;;21.89;100.00;95033.19;6187519;23;20032;-87
2022/10/04 09:19:38;;;;;;;12.43;2.17;;;;;;;21.99;99.99;95032.03;6161682;23;19997;-87
2022/10/04 09:22:34;;;;;;;8.98;2.78;;;;;;;21.68;100.00;95027.81;6187644;23;20359;-87
2022/10/04 09:25:08;;;;;;;6.25;3.35;;;;;;;21.39;100.00;95027.44;6161761;23;20027;-88
2022/10/04 09:28:14;;;;;;;8.98;2.83;;;;;;;21.63;100.00;95030.63;6161836;23;19997;-87
2022/10/04 09:30:43;;;;;;;6.97;2.00;;;;;;;21.66;97.53;95030.78;6161705;23;20421;-87
2022/10/04 09:33:27;;;;;;;10.95;3.13;;;;;;;21.24;99.88;95026.09;6187817;23;19997;-88
2022/10/04 09:36:18;;;;;;;13.00;3.03;;;;;;;21.74;100.00;95037.97;6161283;23;20009;-87
2022/10/04 09:38:58;;;;;;;5.55;2.03;;;;;;;22.00;100.00;95038.91;6187424;23;20004;-87
2022/10/04 09:41:33;;;;;;;6.07;2.70;;;;;;;22.29;98.54;95031.97;6187385;23;20067;-87
2022/10/04 09:44:17;;;;;;;7.00;2.88;;;;;;;21.83;95.54;95037.13;6161371;23;20005;-87
2022/10/04 09:46:58;;;;;;;6.97;3.15;;;;;;;21.75;100.00;95033.41;6161276;23;20008;-88
2022/10/04 09:49:39;;;;;;;8.25;2.60;;;;;;;22.29;99.49;95037.31;6160735;23;20028;-87
2022/10/04 09:52:29;;;;;;;6.50;2.63;;;;;;;22.52;100.00;95037.78;6160941;23;20005;-87
2022/10/04 09:55:03;;;;;;;12.82;3.58;;;;;;;22.02;100.00;95031.38;6161397;23;20425;-87
2022/10/04 09:57:30;;;;;;;11.00;3.25;;;;;;;22.35;100.00;95035.97;6161278;23;20059;-88
2022/10/04 10:00:07;;;;;;;10.57;3.60;;;;;;;22.01;100.00;95033.25;6161252;23;19997;-86
2022/10/04 10:02:55;;;;;;;13.02;4.22;;;;;;;21.50;100.00;95033.19;6161143;23;20127;-87
2022/10/04 10:05:54;;;;;;;6.20;3.17;;;;;;;22.05;100.00;95033.38;6161337;23;20087;-88
2022/10/04 10:08:43;;;;;;;9.25;3.03;;;;;;;23.08;96.56;95043.84;6161193;23;20024;-87
2022/10/04 10:14:34;;;;;;;13.80;4.45;;;;;;;22.57;100.00;95039.47;6187046;23;20008;-87
2022/10/04 10:17:06;;;;;;;10.15;3.28;;;;;;;22.58;100.00;95036.44;6187070;23;20378;-87
2022/10/04 10:19:47;;;;;;;9.90;3.20;;;;;;;22.70;100.00;95037.59;6161601;23;20001;-87
2022/10/04 10:22:18;;;;;;;15.98;3.40;;;;;;;22.37;100.00;95039.09;6161102;23;20133;-88
2022/10/04 10:25:28;;;;;;;12.85;3.38;;;;;;;22.79;100.00;95040.19;6160964;23;20012;-88
2022/10/04 10:28:00;;;;;;;11.88;3.90;;;;;;;22.45;99.93;95043.59;6043637;23;20005;-88
2022/10/04 10:30:33;;;;;;;10.20;3.83;;;;;;;22.60;99.87;95044.13;6067329;23;20017;-87
2022/10/04 10:33:19;;;;;;;8.70;3.55;;;;;;;22.74;95.56;95060.66;6109112;23;20068;-87
2022/10/04 10:36:08;;;;;;;9.43;3.83;;;;;;;23.36;96.40;95052.06;6161656;23;20368;-87
2022/10/04 10:39:12;;;;;;;14.68;4.22;;;;;;;23.51;97.66;95057.84;6160992;23;20055;-88
2022/10/04 10:41:56;;;;;;;14.23;4.60;;;;;;;23.76;97.05;95055.97;6187340;23;20021;-88
2022/10/04 10:44:36;;;;;;;7.53;3.80;;;;;;;23.62;91.91;95052.84;6161978;23;20477;-87
2022/10/04 10:47:10;;;;;;;11.43;4.22;;;;;;;24.17;85.13;95050.69;6161194;23;20028;-88
2022/10/04 10:50:00;;;;;;;8.30;4.40;;;;;;;23.32;93.04;95053.84;6160675;23;20007;-88
2022/10/04 10:52:47;;;;;;;9.82;4.97;;;;;;;23.06;94.99;95064.75;6186962;23;20001;-87
2022/10/04 10:55:31;;;;;;;9.85;4.47;;;;;;;23.18;95.77;95056.00;6187207;23;20076;-87
2022/10/04 10:58:27;;;;;;;15.00;5.00;;;;;;;23.25;94.84;95058.91;6186964;23;20008;-87
2022/10/04 11:01:14;;;;;;;14.18;5.80;;;;;;;23.09;92.87;95058.75;6161601;23;20084;-88
2022/10/04 11:03:55;;;;;;;15.70;5.05;;;;;;;23.64;92.77;95051.41;6162870;23;20001;-87
2022/10/04 11:06:41;;;;;;;13.15;6.28;;;;;;;23.02;98.40;95056.63;6189178;23;19993;-87
2022/10/04 11:09:19;;;;;;;15.73;5.85;;;;;;;23.01;98.31;95053.19;6188808;23;20008;-88
2022/10/04 11:12:10;;;;;;;15.88;7.22;;;;;;;22.64;100.00;95061.06;6179335;23;20000;-87
2022/10/04 11:15:00;;;;;;;14.32;6.03;;;;;;;22.91;100.00;95053.59;6192955;23;20005;-87
2022/10/04 11:17:28;;;;;;;16.20;6.28;;;;;;;22.89;100.00;95061.16;6192968;23;20078;-88
2022/10/04 11:20:31;;;;;;;15.02;6.57;;;;;;;22.80;100.00;95061.25;6217909;23;20011;-88
2022/10/04 11:23:18;;;;;;;11.48;5.50;;;;;;;23.24;100.00;95062.69;6217584;23;20416;-87
2022/10/04 11:26:18;;;;;;;11.35;5.43;;;;;;;23.32;94.57;95067.22;6192830;23;20465;-87
2022/10/04 11:29:02;;;;;;;12.85;4.70;;;;;;;22.69;100.00;95060.09;6217594;23;20000;-88
2022/10/04 11:31:35;;;;;;;;;;;;;;;22.64;96.38;95061.06;6219242;23;20038;-87
2022/10/04 11:34:36;;;;;;;11.25;5.72;;;;;;;22.97;92.71;95065.66;6219460;23;19926;-87
2022/10/04 11:37:16;;;;;;;12.55;5.60;;;;;;;22.94;100.00;95063.63;6218754;23;20009;-88
2022/10/04 11:40:04;;;;;;;14.48;5.43;;;;;;;24.20;94.76;95052.72;6217353;23;19996;-88
2022/10/04 11:43:24;;;;;;;14.30;4.40;;;;;;;24.79;92.14;95057.78;6217466;23;20051;-88
2022/10/04 11:46:07;;;;;;;11.90;4.78;;;;;;;24.43;86.85;95054.88;6127083;23;20025;-88
2022/10/04 11:48:41;;;;;;;9.95;4.88;;;;;;;24.34;84.96;95055.00;6209326;23;20004;-88
2022/10/04 11:51:17;;;;;;;11.35;4.20;;;;;;;24.62;85.17;95053.50;6218788;23;20019;-88
2022/10/04 11:54:26;;;;;;;8.63;4.85;;;;;;;24.44;83.13;95051.06;6218484;23;20001;-87
2022/10/04 11:57:06;;;;;;;10.27;6.10;;;;;;;23.64;86.01;95051.41;6126604;23;20017;-87
2022/10/04 12:00:00;;;;;;;13.55;6.78;;;;;;;23.09;89.73;95048.06;6181249;23;20358;-88
2022/10/04 12:02:38;;;;;;;11.75;5.53;;;;;;;24.33;83.89;95042.75;6183517;23;20000;-87
2022/10/04 12:05:39;;;;;;;10.63;6.13;;;;;;;23.61;91.13;95044.06;6218414;23;20382;-88
2022/10/04 12:08:19;;;;;;;10.60;4.90;;;;;;;23.56;96.19;95050.41;6192370;23;20417;-87
2022/10/04 12:11:20;;;;;;;9.85;5.13;;;;;;;24.05;96.42;95058.75;6217010;23;20040;-87
2022/10/04 12:13:45;;;;;;;12.57;6.20;;;;;;;24.18;92.13;95049.59;6188708;23;20001;-88
2022/10/04 12:16:28;;;;;;;13.00;6.72;;;;;;;24.44;88.52;95048.41;6218645;23;20075;-88
2022/10/04 12:18:59;;;;;;;14.75;6.88;;;;;;;24.52;91.11;95052.03;6193153;23;19993;-87
2022/10/04 12:21:53;;;;;;;16.02;9.63;;;;;;;23.63;94.53;95055.19;6217038;23;20087;-87
2022/10/04 12:24:22;;;;;;;;;;;;;;;24.14;88.76;95044.13;6217282;23;20004;-88
2022/10/04 12:26:47;;;;;;;21.65;11.45;;;;;;;24.12;87.04;95049.06;6217021;23;19938;-87